sensor_id;sensor_type;location;lat;lon;timestamp;P1;durP1;ratioP1;P2;durP2;ratioP2
67164;SDS011;54093;50.014;19.984;2022-12-08T00:06:54;2.55;;;2.08;;
67164;SDS011;54093;50.014;19.984;2022-12-08T00:16:34;2.05;;;1.95;;
67164;SDS011;54093;50.014;19.984;2022-12-08T00:25:55;2.20;;;2.10;;
67164;SDS011;54093;50.014;19.984;2022-12-08T00:35:16;2.45;;;2.30;;
67164;SDS011;54093;50.014;19.984;2022-12-08T00:44:37;1.90;;;1.80;;
67164;SDS011;54093;50.014;19.984;2022-12-08T00:53:58;2.65;;;2.45;;
67164;SDS011;54093;50.014;19.984;2022-12-08T01:03:19;1.95;;;1.85;;
67164;SDS011;54093;50.014;19.984;2022-12-08T01:12:40;2.05;;;1.95;;
67164;SDS011;54093;50.014;19.984;2022-12-08T01:22:00;2.25;;;2.15;;
67164;SDS011;54093;50.014;19.984;2022-12-08T01:31:21;1.80;;;1.70;;
67164;SDS011;54093;50.014;19.984;2022-12-08T01:40:42;2.97;;;1.90;;
67164;SDS011;54093;50.014;19.984;2022-12-08T01:50:04;2.30;;;2.20;;
67164;SDS011;54093;50.014;19.984;2022-12-08T01:59:27;2.15;;;2.05;;
67164;SDS011;54093;50.014;19.984;2022-12-08T02:08:52;2.17;;;1.80;;
67164;SDS011;54093;50.014;19.984;2022-12-08T02:46:49;1.98;;;1.88;;
67164;SDS011;54093;50.014;19.984;2022-12-08T02:56:16;2.67;;;2.47;;
67164;SDS011;54093;50.014;19.984;2022-12-08T03:06:16;2.10;;;2.00;;
67164;SDS011;54093;50.014;19.984;2022-12-08T03:15:59;2.17;;;1.98;;
67164;SDS011;54093;50.014;19.984;2022-12-08T03:25:24;2.17;;;2.08;;
67164;SDS011;54093;50.014;19.984;2022-12-08T03:34:47;2.70;;;2.50;;
67164;SDS011;54093;50.014;19.984;2022-12-08T03:44:09;2.63;;;2.38;;
67164;SDS011;54093;50.014;19.984;2022-12-08T03:53:30;2.47;;;2.38;;
67164;SDS011;54093;50.014;19.984;2022-12-08T04:02:50;2.00;;;1.90;;
67164;SDS011;54093;50.014;19.984;2022-12-08T04:12:11;1.85;;;1.77;;
67164;SDS011;54093;50.014;19.984;2022-12-08T04:21:33;2.38;;;2.17;;
67164;SDS011;54093;50.014;19.984;2022-12-08T04:30:54;2.60;;;2.47;;
67164;SDS011;54093;50.014;19.984;2022-12-08T04:40:15;1.83;;;1.75;;
67164;SDS011;54093;50.014;19.984;2022-12-08T04:49:36;1.80;;;1.70;;
67164;SDS011;54093;50.014;19.984;2022-12-08T04:58:57;2.40;;;2.28;;
67164;SDS011;54093;50.014;19.984;2022-12-08T05:08:17;2.67;;;2.47;;
67164;SDS011;54093;50.014;19.984;2022-12-08T05:17:38;1.88;;;1.77;;
67164;SDS011;54093;50.014;19.984;2022-12-08T05:26:59;1.95;;;1.85;;
67164;SDS011;54093;50.014;19.984;2022-12-08T05:36:20;2.80;;;2.70;;
67164;SDS011;54093;50.014;19.984;2022-12-08T05:45:41;2.50;;;2.30;;
67164;SDS011;54093;50.014;19.984;2022-12-08T05:55:02;2.40;;;2.20;;
67164;SDS011;54093;50.014;19.984;2022-12-08T06:04:23;2.50;;;2.40;;
67164;SDS011;54093;50.014;19.984;2022-12-08T06:13:44;2.47;;;2.38;;
67164;SDS011;54093;50.014;19.984;2022-12-08T06:23:05;2.30;;;2.20;;
67164;SDS011;54093;50.014;19.984;2022-12-08T06:32:26;3.22;;;3.03;;
67164;SDS011;54093;50.014;19.984;2022-12-08T06:41:46;3.78;;;2.30;;
67164;SDS011;54093;50.014;19.984;2022-12-08T06:51:26;3.05;;;2.33;;
67164;SDS011;54093;50.014;19.984;2022-12-08T07:00:46;2.72;;;2.53;;
67164;SDS011;54093;50.014;19.984;2022-12-08T07:10:07;2.90;;;2.70;;
67164;SDS011;54093;50.014;19.984;2022-12-08T07:19:28;9.00;;;3.13;;
67164;SDS011;54093;50.014;19.984;2022-12-08T07:28:49;2.53;;;2.33;;
67164;SDS011;54093;50.014;19.984;2022-12-08T07:38:10;3.00;;;2.80;;
67164;SDS011;54093;50.014;19.984;2022-12-08T07:47:31;2.22;;;2.03;;
67164;SDS011;54093;50.014;19.984;2022-12-08T07:56:52;2.60;;;2.38;;
67164;SDS011;54093;50.014;19.984;2022-12-08T08:06:13;2.25;;;2.15;;
67164;SDS011;54093;50.014;19.984;2022-12-08T08:15:34;4.68;;;2.20;;
67164;SDS011;54093;50.014;19.984;2022-12-08T08:24:54;3.13;;;2.92;;
67164;SDS011;54093;50.014;19.984;2022-12-08T08:34:15;2.85;;;2.65;;
67164;SDS011;54093;50.014;19.984;2022-12-08T08:43:36;2.60;;;2.45;;
67164;SDS011;54093;50.014;19.984;2022-12-08T08:52:57;4.97;;;3.05;;
67164;SDS011;54093;50.014;19.984;2022-12-08T09:02:19;3.80;;;3.45;;
67164;SDS011;54093;50.014;19.984;2022-12-08T09:11:40;3.53;;;3.22;;
67164;SDS011;54093;50.014;19.984;2022-12-08T09:21:02;2.83;;;2.65;;
67164;SDS011;54093;50.014;19.984;2022-12-08T09:30:27;4.00;;;3.70;;
67164;SDS011;54093;50.014;19.984;2022-12-08T09:39:48;10.50;;;3.28;;
67164;SDS011;54093;50.014;19.984;2022-12-08T09:49:11;6.18;;;4.20;;
67164;SDS011;54093;50.014;19.984;2022-12-08T10:08:08;4.88;;;4.47;;
67164;SDS011;54093;50.014;19.984;2022-12-08T10:17:45;4.22;;;3.92;;
67164;SDS011;54093;50.014;19.984;2022-12-08T10:27:09;4.28;;;3.50;;
67164;SDS011;54093;50.014;19.984;2022-12-08T10:36:45;6.10;;;4.57;;
67164;SDS011;54093;50.014;19.984;2022-12-08T10:46:10;4.90;;;4.50;;
67164;SDS011;54093;50.014;19.984;2022-12-08T10:55:45;4.25;;;3.88;;
67164;SDS011;54093;50.014;19.984;2022-12-08T11:05:27;5.25;;;4.43;;
67164;SDS011;54093;50.014;19.984;2022-12-08T11:14:56;4.45;;;4.05;;
67164;SDS011;54093;50.014;19.984;2022-12-08T11:24:24;4.57;;;3.28;;
67164;SDS011;54093;50.014;19.984;2022-12-08T11:33:47;4.55;;;4.18;;
67164;SDS011;54093;50.014;19.984;2022-12-08T11:43:15;5.28;;;4.70;;
67164;SDS011;54093;50.014;19.984;2022-12-08T11:52:44;6.75;;;4.90;;
67164;SDS011;54093;50.014;19.984;2022-12-08T12:02:11;4.32;;;3.95;;
67164;SDS011;54093;50.014;19.984;2022-12-08T12:21:34;4.72;;;4.43;;
67164;SDS011;54093;50.014;19.984;2022-12-08T12:31:04;4.90;;;3.80;;
67164;SDS011;54093;50.014;19.984;2022-12-08T12:40:33;5.60;;;5.10;;
67164;SDS011;54093;50.014;19.984;2022-12-08T12:50:05;6.43;;;4.20;;
67164;SDS011;54093;50.014;19.984;2022-12-08T12:59:31;5.03;;;4.28;;
67164;SDS011;54093;50.014;19.984;2022-12-08T13:08:55;5.38;;;4.50;;
67164;SDS011;54093;50.014;19.984;2022-12-08T13:18:27;4.45;;;4.13;;
67164;SDS011;54093;50.014;19.984;2022-12-08T13:27:59;5.05;;;4.55;;
67164;SDS011;54093;50.014;19.984;2022-12-08T13:37:45;5.88;;;5.25;;
67164;SDS011;54093;50.014;19.984;2022-12-08T13:47:10;4.63;;;4.18;;
67164;SDS011;54093;50.014;19.984;2022-12-08T13:56:38;8.57;;;5.53;;
67164;SDS011;54093;50.014;19.984;2022-12-08T14:06:01;5.35;;;4.95;;
67164;SDS011;54093;50.014;19.984;2022-12-08T14:15:24;5.03;;;4.18;;
67164;SDS011;54093;50.014;19.984;2022-12-08T14:24:46;7.80;;;5.90;;
67164;SDS011;54093;50.014;19.984;2022-12-08T14:34:09;5.30;;;4.80;;
67164;SDS011;54093;50.014;19.984;2022-12-08T14:43:31;5.00;;;4.60;;
67164;SDS011;54093;50.014;19.984;2022-12-08T14:52:52;6.18;;;5.68;;
67164;SDS011;54093;50.014;19.984;2022-12-08T15:11:43;6.35;;;5.45;;
67164;SDS011;54093;50.014;19.984;2022-12-08T15:21:08;6.22;;;5.45;;
67164;SDS011;54093;50.014;19.984;2022-12-08T15:30:32;17.60;;;5.10;;
67164;SDS011;54093;50.014;19.984;2022-12-08T15:39:53;5.10;;;4.63;;
67164;SDS011;54093;50.014;19.984;2022-12-08T15:49:18;9.63;;;4.78;;
67164;SDS011;54093;50.014;19.984;2022-12-08T15:58:41;7.13;;;5.10;;
67164;SDS011;54093;50.014;19.984;2022-12-08T16:08:02;5.97;;;5.47;;
67164;SDS011;54093;50.014;19.984;2022-12-08T16:17:23;9.27;;;6.65;;
67164;SDS011;54093;50.014;19.984;2022-12-08T16:26:44;8.32;;;6.65;;
67164;SDS011;54093;50.014;19.984;2022-12-08T16:36:05;9.02;;;6.95;;
67164;SDS011;54093;50.014;19.984;2022-12-08T16:45:27;12.48;;;7.47;;
67164;SDS011;54093;50.014;19.984;2022-12-08T16:54:49;12.23;;;8.95;;
67164;SDS011;54093;50.014;19.984;2022-12-08T17:04:10;8.13;;;7.35;;
67164;SDS011;54093;50.014;19.984;2022-12-08T17:13:30;8.75;;;6.70;;
67164;SDS011;54093;50.014;19.984;2022-12-08T17:22:57;9.32;;;8.25;;
67164;SDS011;54093;50.014;19.984;2022-12-08T17:32:18;8.80;;;7.20;;
67164;SDS011;54093;50.014;19.984;2022-12-08T17:41:39;13.43;;;7.50;;
67164;SDS011;54093;50.014;19.984;2022-12-08T17:51:00;10.07;;;7.65;;
67164;SDS011;54093;50.014;19.984;2022-12-08T18:00:21;10.85;;;7.10;;
67164;SDS011;54093;50.014;19.984;2022-12-08T18:09:42;21.17;;;9.88;;
67164;SDS011;54093;50.014;19.984;2022-12-08T18:19:03;9.93;;;8.55;;
67164;SDS011;54093;50.014;19.984;2022-12-08T18:28:24;11.98;;;7.32;;
67164;SDS011;54093;50.014;19.984;2022-12-08T18:37:45;14.98;;;7.63;;
67164;SDS011;54093;50.014;19.984;2022-12-08T18:47:06;6.22;;;5.63;;
67164;SDS011;54093;50.014;19.984;2022-12-08T18:56:30;9.25;;;6.65;;
67164;SDS011;54093;50.014;19.984;2022-12-08T19:06:04;10.30;;;5.97;;
67164;SDS011;54093;50.014;19.984;2022-12-08T19:15:26;11.35;;;7.63;;
67164;SDS011;54093;50.014;19.984;2022-12-08T19:24:47;9.30;;;6.13;;
67164;SDS011;54093;50.014;19.984;2022-12-08T19:34:08;12.10;;;7.90;;
67164;SDS011;54093;50.014;19.984;2022-12-08T19:43:31;9.68;;;7.68;;
67164;SDS011;54093;50.014;19.984;2022-12-08T19:53:13;13.15;;;8.20;;
67164;SDS011;54093;50.014;19.984;2022-12-08T20:02:34;16.73;;;7.47;;
67164;SDS011;54093;50.014;19.984;2022-12-08T20:11:56;11.57;;;7.57;;
67164;SDS011;54093;50.014;19.984;2022-12-08T20:21:16;12.40;;;7.15;;
67164;SDS011;54093;50.014;19.984;2022-12-08T20:30:38;9.07;;;7.05;;
67164;SDS011;54093;50.014;19.984;2022-12-08T20:40:00;12.90;;;8.48;;
67164;SDS011;54093;50.014;19.984;2022-12-08T20:49:21;11.13;;;6.95;;
67164;SDS011;54093;50.014;19.984;2022-12-08T20:58:42;14.13;;;8.50;;
67164;SDS011;54093;50.014;19.984;2022-12-08T21:08:03;14.73;;;8.63;;
67164;SDS011;54093;50.014;19.984;2022-12-08T21:17:27;18.92;;;9.98;;
67164;SDS011;54093;50.014;19.984;2022-12-08T21:26:48;15.57;;;8.48;;
67164;SDS011;54093;50.014;19.984;2022-12-08T21:36:15;11.93;;;8.25;;
67164;SDS011;54093;50.014;19.984;2022-12-08T21:45:38;11.63;;;7.45;;
67164;SDS011;54093;50.014;19.984;2022-12-08T21:54:59;10.27;;;7.97;;
67164;SDS011;54093;50.014;19.984;2022-12-08T22:04:19;13.95;;;8.48;;
67164;SDS011;54093;50.014;19.984;2022-12-08T22:13:41;10.65;;;7.13;;
67164;SDS011;54093;50.014;19.984;2022-12-08T22:23:02;12.88;;;7.65;;
67164;SDS011;54093;50.014;19.984;2022-12-08T22:32:22;16.48;;;8.98;;
67164;SDS011;54093;50.014;19.984;2022-12-08T22:41:43;11.82;;;9.13;;
67164;SDS011;54093;50.014;19.984;2022-12-08T22:51:04;6.32;;;5.28;;
67164;SDS011;54093;50.014;19.984;2022-12-08T23:00:25;10.60;;;6.13;;
67164;SDS011;54093;50.014;19.984;2022-12-08T23:09:46;5.50;;;5.00;;
67164;SDS011;54093;50.014;19.984;2022-12-08T23:19:08;6.80;;;4.90;;
67164;SDS011;54093;50.014;19.984;2022-12-08T23:28:29;6.18;;;4.80;;
67164;SDS011;54093;50.014;19.984;2022-12-08T23:37:50;14.30;;;5.90;;
67164;SDS011;54093;50.014;19.984;2022-12-08T23:47:12;8.65;;;5.82;;
67164;SDS011;54093;50.014;19.984;2022-12-08T23:56:33;10.85;;;6.15;;
